createdAt,value
2022-09-03T00:00:05.510Z,50.51
2022-09-03T00:02:54.061Z,50.02
2022-09-03T00:05:41.580Z,50.09
2022-09-03T00:08:11.604Z,49.87
2022-09-03T00:10:38.621Z,50.70
2022-09-03T00:13:07.932Z,50.50
2022-09-03T00:15:35.965Z,50.84
2022-09-03T00:18:24.840Z,50.55
2022-09-03T00:21:13.084Z,50.35
2022-09-03T00:23:41.632Z,50.53
2022-09-03T00:26:12.232Z,51.58
2022-09-03T00:28:45.460Z,50.85
2022-09-03T00:31:27.536Z,50.62
2022-09-03T00:34:05.355Z,50.82
2022-09-03T00:36:42.528Z,51.00
2022-09-03T00:39:15.042Z,50.79
2022-09-03T00:41:53.627Z,50.91
2022-09-03T00:44:45.312Z,51.53
2022-09-03T00:47:24.996Z,51.46
2022-09-03T00:50:18.342Z,52.17
2022-09-03T00:53:00.415Z,51.69
2022-09-03T00:55:35.956Z,51.52
2022-09-03T00:58:10.111Z,52.13
2022-09-03T01:00:40.041Z,52.09
2022-09-03T01:03:14.065Z,52.76
2022-09-03T01:05:46.909Z,52.26
2022-09-03T01:08:32.081Z,51.95
2022-09-03T01:11:17.962Z,51.94
2022-09-03T01:14:02.470Z,52.41
2022-09-03T01:16:42.227Z,51.71
2022-09-03T01:19:28.891Z,51.75
2022-09-03T01:22:11.056Z,51.53
2022-09-03T01:24:59.195Z,52.09
2022-09-03T01:27:30.498Z,51.85
2022-09-03T01:30:18.262Z,52.12
2022-09-03T01:33:02.918Z,52.82
2022-09-03T01:35:37.656Z,52.73
2022-09-03T01:38:32.030Z,52.90
2022-09-03T01:41:25.489Z,52.95
2022-09-03T01:44:26.239Z,53.71
2022-09-03T01:47:06.647Z,53.15
2022-09-03T01:50:01.292Z,53.29
2022-09-03T01:53:03.260Z,52.98
2022-09-03T01:55:44.427Z,53.13
2022-09-03T01:58:20.989Z,53.04
2022-09-03T02:00:52.091Z,53.28
2022-09-03T02:03:19.405Z,53.51
2022-09-03T02:05:47.788Z,53.32
2022-09-03T02:08:15.081Z,53.29
2022-09-03T02:10:47.996Z,52.99
2022-09-03T02:13:27.430Z,52.91
2022-09-03T02:15:56.815Z,53.34
2022-09-03T02:18:27.061Z,53.59
2022-09-03T02:20:54.822Z,54.78
2022-09-03T02:23:25.482Z,55.47
2022-09-03T02:25:58.452Z,53.79
2022-09-03T02:28:26.528Z,53.72
2022-09-03T02:30:54.420Z,54.26
2022-09-03T02:33:21.571Z,54.08
2022-09-03T02:35:48.915Z,54.27
2022-09-03T02:38:21.529Z,54.12
2022-09-03T02:40:48.801Z,54.66
2022-09-03T02:43:25.961Z,54.08
2022-09-03T02:45:56.748Z,54.20
2022-09-03T02:48:24.785Z,54.21
2022-09-03T02:50:52.059Z,53.76
2022-09-03T02:53:19.678Z,53.70
2022-09-03T02:55:46.794Z,53.34
2022-09-03T02:58:14.192Z,53.69
2022-09-03T03:00:41.304Z,54.15
2022-09-03T03:03:08.437Z,54.67
2022-09-03T03:05:49.839Z,54.84
2022-09-03T03:08:21.223Z,55.03
2022-09-03T03:10:49.269Z,54.42
2022-09-03T03:13:16.646Z,54.74
2022-09-03T03:15:44.356Z,54.46
2022-09-03T03:18:14.574Z,54.29
2022-09-03T03:20:42.114Z,55.07
2022-09-03T03:23:10.032Z,55.08
2022-09-03T03:25:38.756Z,55.56
2022-09-03T03:28:06.535Z,55.64
2022-09-03T03:30:34.464Z,55.86
2022-09-03T03:33:01.639Z,55.15
2022-09-03T03:35:28.724Z,56.21
2022-09-03T03:37:58.135Z,56.94
2022-09-03T03:40:25.739Z,55.64
2022-09-03T03:42:53.595Z,55.24
2022-09-03T03:45:20.791Z,55.40
2022-09-03T03:47:47.977Z,55.63
2022-09-03T03:50:15.343Z,55.92
2022-09-03T03:52:42.780Z,57.34
2022-09-03T03:55:09.945Z,56.09
2022-09-03T03:57:37.068Z,55.50
2022-09-03T04:00:04.729Z,56.04
2022-09-03T04:02:34.178Z,55.07
2022-09-03T04:05:04.861Z,54.82
2022-09-03T04:07:31.960Z,54.93
2022-09-03T04:10:01.208Z,55.05
2022-09-03T04:12:28.311Z,55.22
2022-09-03T04:14:55.475Z,55.88
2022-09-03T04:17:25.268Z,55.52
2022-09-03T04:19:52.657Z,57.20
2022-09-03T04:22:20.680Z,56.71
2022-09-03T04:24:47.839Z,55.78
2022-09-03T04:27:14.943Z,56.64
2022-09-03T04:29:42.085Z,56.79
2022-09-03T04:32:28.145Z,56.05
2022-09-03T04:34:55.206Z,56.68
2022-09-03T04:37:22.345Z,57.68
2022-09-03T04:39:49.596Z,57.36
2022-09-03T04:42:16.714Z,58.31
2022-09-03T04:44:43.830Z,57.94
2022-09-03T04:47:11.191Z,57.62
2022-09-03T04:49:40.140Z,56.92
2022-09-03T04:52:07.264Z,57.77
2022-09-03T04:54:34.400Z,58.46
2022-09-03T04:57:01.552Z,57.43
2022-09-03T04:59:28.637Z,56.96
2022-09-03T05:01:56.784Z,56.94
2022-09-03T05:04:23.998Z,57.26
2022-09-03T05:06:51.116Z,58.58
2022-09-03T05:09:18.229Z,57.91
2022-09-03T05:11:45.370Z,59.59
2022-09-03T05:14:12.698Z,57.76
2022-09-03T05:16:39.988Z,57.13
2022-09-03T05:19:08.064Z,57.21
2022-09-03T05:21:38.644Z,59.49
2022-09-03T05:24:05.787Z,57.89
2022-09-03T05:26:37.103Z,59.36
2022-09-03T05:29:08.250Z,58.08
2022-09-03T05:31:38.975Z,60.22
2022-09-03T05:34:06.923Z,58.99
2022-09-03T05:36:36.989Z,58.07
2022-09-03T05:39:05.573Z,58.45
2022-09-03T05:41:33.951Z,58.38
2022-09-03T05:44:01.285Z,59.06
2022-09-03T05:46:33.985Z,58.18
2022-09-03T05:49:02.541Z,60.03
2022-09-03T05:51:30.477Z,59.87
2022-09-03T05:53:57.945Z,59.37
2022-09-03T05:56:26.044Z,60.00
2022-09-03T05:58:55.967Z,61.05
2022-09-03T06:01:31.178Z,60.80
2022-09-03T06:04:02.522Z,60.28
2022-09-03T06:06:32.935Z,59.73
2022-09-03T06:09:21.184Z,61.00
2022-09-03T06:11:50.816Z,60.30
2022-09-03T06:14:20.190Z,59.97
2022-09-03T06:16:52.840Z,59.90
2022-09-03T06:19:20.269Z,59.78
2022-09-03T06:21:47.995Z,59.89
2022-09-03T06:24:20.301Z,59.03
2022-09-03T06:26:48.290Z,59.31
2022-09-03T06:29:16.001Z,59.37
2022-09-03T06:31:43.184Z,59.20
2022-09-03T06:34:10.392Z,59.02
2022-09-03T06:36:41.286Z,58.91
2022-09-03T06:39:08.432Z,60.70
2022-09-03T06:41:35.716Z,60.08
2022-09-03T06:44:11.381Z,59.67
2022-09-03T06:46:40.107Z,59.62
2022-09-03T06:49:08.398Z,59.03
2022-09-03T06:51:36.323Z,60.15
2022-09-03T06:54:08.494Z,60.65
2022-09-03T06:56:40.163Z,58.97
2022-09-03T06:59:13.046Z,59.95
2022-09-03T07:01:43.943Z,59.47
2022-09-03T07:04:13.311Z,58.88
2022-09-03T07:06:42.423Z,58.18
2022-09-03T07:09:10.968Z,58.60
2022-09-03T07:11:45.671Z,60.18
2022-09-03T07:14:13.541Z,59.37
2022-09-03T07:16:42.036Z,58.75
2022-09-03T07:19:09.749Z,59.58
2022-09-03T07:21:37.457Z,58.00
2022-09-03T07:24:05.871Z,58.70
2022-09-03T07:26:35.331Z,57.77
2022-09-03T07:29:02.842Z,57.63
2022-09-03T07:31:33.474Z,57.51
2022-09-03T07:34:11.540Z,57.42
2022-09-03T07:36:43.910Z,57.14
2022-09-03T07:39:12.063Z,57.35
2022-09-03T07:41:39.642Z,56.64
2022-09-03T07:44:08.483Z,56.84
2022-09-03T07:46:37.887Z,56.56
2022-09-03T07:49:06.233Z,56.37
2022-09-03T07:51:36.123Z,56.29
2022-09-03T07:54:06.949Z,55.97
2022-09-03T07:56:35.844Z,56.15
2022-09-03T07:59:03.729Z,56.27
2022-09-03T08:01:32.824Z,55.85
2022-09-03T08:04:01.026Z,55.75
2022-09-03T08:06:29.420Z,55.57
2022-09-03T08:09:04.135Z,55.39
2022-09-03T08:11:34.929Z,55.27
2022-09-03T08:14:07.497Z,54.97
2022-09-03T08:16:42.989Z,55.00
2022-09-03T08:19:11.245Z,54.52
2022-09-03T08:21:41.768Z,54.43
2022-09-03T08:24:09.115Z,54.44
2022-09-03T08:26:38.739Z,54.86
2022-09-03T08:29:06.134Z,54.80
2022-09-03T08:31:34.078Z,54.68
2022-09-03T08:34:06.340Z,54.30
2022-09-03T08:36:35.875Z,54.60
2022-09-03T08:39:08.035Z,54.47
2022-09-03T08:41:53.079Z,54.58
2022-09-03T08:44:35.081Z,54.30
2022-09-03T08:47:11.175Z,54.17
2022-09-03T08:49:52.356Z,54.02
2022-09-03T08:52:24.518Z,54.30
2022-09-03T08:54:52.881Z,54.01
2022-09-03T08:57:20.758Z,54.05
2022-09-03T08:59:53.512Z,53.89
2022-09-03T09:02:31.160Z,53.99
2022-09-03T09:05:16.275Z,54.07
2022-09-03T09:07:53.904Z,53.94
2022-09-03T09:10:26.353Z,53.85
2022-09-03T09:13:26.115Z,53.71
2022-09-03T09:16:16.088Z,53.35
2022-09-03T09:19:05.142Z,52.81
2022-09-03T09:21:41.342Z,52.62
2022-09-03T09:24:19.367Z,52.10
2022-09-03T09:26:46.925Z,51.96
2022-09-03T09:29:14.570Z,52.04
2022-09-03T09:31:44.650Z,51.75
2022-09-03T09:34:11.923Z,51.45
2022-09-03T09:36:53.410Z,51.30
2022-09-03T09:39:21.766Z,51.24
2022-09-03T09:41:59.952Z,50.93
2022-09-03T09:44:28.065Z,50.64
2022-09-03T09:47:04.781Z,50.73
2022-09-03T09:49:35.581Z,50.31
2022-09-03T09:52:06.342Z,49.05
2022-09-03T09:54:33.451Z,48.98
2022-09-03T09:57:03.597Z,48.78
2022-09-03T09:59:31.269Z,48.83
2022-09-03T10:02:11.607Z,49.03
2022-09-03T10:04:43.957Z,48.60
2022-09-03T10:07:27.394Z,47.56
2022-09-03T10:10:04.021Z,47.25
2022-09-03T10:12:59.131Z,46.63
2022-09-03T10:15:52.233Z,46.10
2022-09-03T10:18:56.132Z,45.08
2022-09-03T10:21:28.525Z,45.94
2022-09-03T10:24:16.999Z,44.73
2022-09-03T10:26:45.903Z,44.27
2022-09-03T10:29:18.847Z,43.65
2022-09-03T10:32:19.951Z,42.87
2022-09-03T10:35:12.654Z,42.38
2022-09-03T10:38:08.165Z,41.98
2022-09-03T10:40:39.899Z,41.35
2022-09-03T10:43:30.032Z,40.78
2022-09-03T10:46:06.212Z,41.17
2022-09-03T10:48:53.175Z,40.82
2022-09-03T10:51:26.956Z,40.30
2022-09-03T10:54:28.995Z,39.99
2022-09-03T10:57:07.950Z,40.63
2022-09-03T10:59:52.009Z,40.55
2022-09-03T11:02:34.145Z,40.95
2022-09-03T11:05:17.699Z,41.45
2022-09-03T11:07:49.345Z,40.69
2022-09-03T11:10:31.215Z,41.09
2022-09-03T11:12:58.435Z,39.82
2022-09-03T11:15:30.450Z,39.03
2022-09-03T11:18:20.737Z,38.46
2022-09-03T11:20:49.615Z,38.57
2022-09-03T11:23:17.232Z,38.83
2022-09-03T11:25:53.751Z,38.64
2022-09-03T11:28:38.937Z,39.03
2022-09-03T11:31:17.760Z,38.11
2022-09-03T11:33:49.315Z,37.87
2022-09-03T11:36:26.729Z,38.47
2022-09-03T11:38:53.979Z,38.43
2022-09-03T11:41:27.252Z,37.70
2022-09-03T11:43:54.906Z,37.97
2022-09-03T11:46:22.121Z,38.10
2022-09-03T11:48:50.123Z,38.46
2022-09-03T11:51:35.431Z,37.87
2022-09-03T11:54:07.480Z,38.14
2022-09-03T11:56:36.795Z,37.94
2022-09-03T11:59:07.379Z,38.80
2022-09-03T12:01:35.413Z,38.58
2022-09-03T12:04:07.539Z,38.59
2022-09-03T12:06:58.263Z,38.26
2022-09-03T12:09:51.563Z,36.88
2022-09-03T12:12:46.021Z,36.98
2022-09-03T12:15:28.604Z,37.64
2022-09-03T12:18:17.886Z,36.58
2022-09-03T12:20:46.781Z,37.10
2022-09-03T12:23:31.117Z,37.76
2022-09-03T12:26:02.204Z,37.02
2022-09-03T12:28:29.929Z,36.75
2022-09-03T12:31:08.267Z,34.93
2022-09-03T12:33:41.772Z,35.11
2022-09-03T12:36:09.763Z,33.99
2022-09-03T12:39:00.679Z,34.22
2022-09-03T12:41:29.412Z,33.82
2022-09-03T12:43:59.722Z,33.62
2022-09-03T12:46:32.354Z,33.91
2022-09-03T12:51:56.905Z,33.18
2022-09-03T12:54:26.234Z,34.01
2022-09-03T12:56:58.561Z,31.78
2022-09-03T12:59:28.222Z,32.96
2022-09-03T13:01:58.768Z,33.80
2022-09-03T13:04:29.260Z,33.48
2022-09-03T13:07:15.270Z,33.29
2022-09-03T13:09:42.419Z,33.38
2022-09-03T13:12:33.521Z,33.04
2022-09-03T13:15:10.678Z,33.37
2022-09-03T13:17:50.521Z,33.22
2022-09-03T13:20:29.238Z,33.51
2022-09-03T13:23:02.639Z,33.43
2022-09-03T13:25:32.722Z,31.00
2022-09-03T13:28:31.823Z,31.56
2022-09-03T13:31:10.785Z,30.78
2022-09-03T13:33:44.515Z,30.38
2022-09-03T13:36:18.046Z,30.42
2022-09-03T13:38:57.483Z,29.81
2022-09-03T13:41:28.016Z,30.52
2022-09-03T13:44:08.423Z,30.57
2022-09-03T13:46:54.963Z,29.28
2022-09-03T13:49:51.965Z,30.57
2022-09-03T13:52:28.649Z,28.10
2022-09-03T13:55:23.510Z,29.68
2022-09-03T13:58:01.667Z,29.26
2022-09-03T14:00:50.753Z,29.11
2022-09-03T14:03:37.240Z,28.90
2022-09-03T14:06:09.497Z,29.11
2022-09-03T14:09:01.448Z,26.05
2022-09-03T14:12:06.437Z,27.66
2022-09-03T14:14:46.912Z,26.37
2022-09-03T14:17:20.667Z,27.87
2022-09-03T14:20:05.583Z,27.00
2022-09-03T14:22:44.028Z,26.02
2022-09-03T14:25:15.662Z,26.92
2022-09-03T14:27:42.793Z,27.01
2022-09-03T14:30:30.180Z,27.12
2022-09-03T14:33:13.432Z,28.25
2022-09-03T14:35:52.805Z,26.79
2022-09-03T14:38:25.742Z,27.34
2022-09-03T14:41:20.355Z,27.95
2022-09-03T14:44:07.028Z,27.56
2022-09-03T14:46:55.969Z,27.63
2022-09-03T14:49:37.954Z,27.46
2022-09-03T14:52:35.668Z,26.79
2022-09-03T14:55:19.650Z,26.64
2022-09-03T14:58:06.104Z,27.25
2022-09-03T15:00:48.434Z,28.36
2022-09-03T15:03:27.377Z,28.14
2022-09-03T15:06:12.879Z,28.32
2022-09-03T15:08:45.548Z,29.67
2022-09-03T15:11:29.380Z,29.79
2022-09-03T15:14:12.443Z,29.32
2022-09-03T15:16:59.813Z,30.39
2022-09-03T15:19:32.861Z,30.20
2022-09-03T15:22:08.430Z,29.33
2022-09-03T15:24:59.078Z,28.38
2022-09-03T15:27:57.554Z,27.50
2022-09-03T15:30:34.073Z,26.92
2022-09-03T15:33:22.196Z,27.09
2022-09-03T15:36:01.618Z,27.65
2022-09-03T15:38:57.899Z,26.46
2022-09-03T15:41:32.544Z,26.18
2022-09-03T15:44:01.310Z,26.12
2022-09-03T15:46:52.844Z,26.26
2022-09-03T15:49:45.345Z,26.00
2022-09-03T15:52:31.777Z,25.70
2022-09-03T15:55:26.127Z,24.96
2022-09-03T15:58:04.988Z,25.43
2022-09-03T16:00:35.920Z,25.55
2022-09-03T16:03:12.220Z,26.23
2022-09-03T16:05:49.367Z,25.68
2022-09-03T16:08:22.417Z,24.93
2022-09-03T16:10:58.446Z,25.29
2022-09-03T16:13:55.935Z,24.00
2022-09-03T16:16:31.505Z,25.24
2022-09-03T16:19:03.435Z,25.99
2022-09-03T16:22:01.033Z,26.38
2022-09-03T16:24:53.369Z,26.05
2022-09-03T16:27:30.674Z,26.74
2022-09-03T16:30:01.139Z,27.24
2022-09-03T16:32:49.870Z,27.49
2022-09-03T16:35:28.072Z,28.32
2022-09-03T16:38:19.486Z,28.47
2022-09-03T16:40:56.863Z,29.09
2022-09-03T16:43:58.063Z,29.29
2022-09-03T16:46:31.062Z,29.73
2022-09-03T16:49:23.266Z,30.27
2022-09-03T16:52:38.674Z,30.15
2022-09-03T16:55:21.387Z,30.85
2022-09-03T16:58:00.943Z,30.56
2022-09-03T17:00:38.911Z,30.88
2022-09-03T17:03:28.499Z,30.43
2022-09-03T17:06:17.129Z,31.50
2022-09-03T17:09:06.857Z,31.43
2022-09-03T17:12:00.135Z,31.29
2022-09-03T17:14:45.889Z,31.48
2022-09-03T17:17:25.904Z,32.18
2022-09-03T17:20:36.040Z,32.13
2022-09-03T17:23:28.810Z,32.59
2022-09-03T17:26:07.577Z,32.30
2022-09-03T17:29:02.859Z,32.69
2022-09-03T17:31:47.781Z,33.12
2022-09-03T17:34:26.377Z,33.06
2022-09-03T17:37:18.866Z,33.42
2022-09-03T17:40:10.526Z,33.25
2022-09-03T17:42:57.140Z,33.67
2022-09-03T17:45:48.017Z,33.44
2022-09-03T17:48:39.292Z,33.99
2022-09-03T17:51:46.215Z,34.16
2022-09-03T17:54:34.288Z,34.38
2022-09-03T17:57:19.132Z,34.61
2022-09-03T18:00:26.181Z,34.71
2022-09-03T18:03:01.363Z,34.76
2022-09-03T18:05:34.642Z,34.77
2022-09-03T18:08:22.393Z,34.95
2022-09-03T18:11:09.912Z,35.22
2022-09-03T18:13:50.153Z,35.04
2022-09-03T18:16:33.078Z,35.16
2022-09-03T18:19:32.293Z,35.51
2022-09-03T18:22:21.222Z,35.38
2022-09-03T18:25:18.808Z,35.56
2022-09-03T18:28:06.830Z,35.49
2022-09-03T18:30:53.078Z,35.36
2022-09-03T18:33:42.815Z,35.72
2022-09-03T18:36:32.446Z,36.22
2022-09-03T18:39:52.100Z,36.81
2022-09-03T18:42:47.519Z,36.30
2022-09-03T18:49:26.717Z,36.05
2022-09-03T18:52:40.128Z,36.32
2022-09-03T18:55:56.919Z,36.99
2022-09-03T18:58:57.951Z,36.92
2022-09-03T19:01:53.666Z,36.85
2022-09-03T19:04:39.614Z,36.59
2022-09-03T19:07:34.345Z,36.95
2022-09-03T19:10:30.876Z,37.33
2022-09-03T19:13:33.963Z,37.13
2022-09-03T19:16:44.077Z,37.47
2022-09-03T19:19:45.146Z,37.56
2022-09-03T19:22:31.919Z,37.56
2022-09-03T19:25:36.117Z,37.40
2022-09-03T19:28:34.359Z,37.45
2022-09-03T19:32:00.231Z,37.62
2022-09-03T19:34:49.006Z,37.64
2022-09-03T19:37:38.766Z,38.03
2022-09-03T19:40:30.868Z,37.80
2022-09-03T19:43:33.615Z,37.84
2022-09-03T19:46:52.556Z,37.72
2022-09-03T19:49:45.047Z,37.87
2022-09-03T19:52:50.887Z,37.62
2022-09-03T19:55:40.693Z,38.24
2022-09-03T19:58:42.689Z,38.00
2022-09-03T20:01:31.227Z,38.02
2022-09-03T20:04:19.058Z,38.55
2022-09-03T20:07:06.163Z,38.70
2022-09-03T20:09:57.113Z,38.73
2022-09-03T20:12:25.364Z,38.85
2022-09-03T20:14:52.677Z,38.85
2022-09-03T20:17:32.980Z,38.84
2022-09-03T20:20:29.717Z,38.71
2022-09-03T20:23:01.748Z,38.88
2022-09-03T20:26:05.205Z,39.06
2022-09-03T20:28:45.806Z,39.33
2022-09-03T20:31:46.413Z,39.45
2022-09-03T20:34:26.210Z,39.23
2022-09-03T20:37:16.177Z,39.64
2022-09-03T20:40:20.952Z,39.73
2022-09-03T20:43:06.340Z,39.66
2022-09-03T20:45:44.334Z,39.72
2022-09-03T20:48:25.371Z,39.93
2022-09-03T20:51:23.370Z,39.59
2022-09-03T20:54:22.201Z,39.92
2022-09-03T20:56:55.537Z,40.02
2022-09-03T20:59:35.936Z,39.78
2022-09-03T21:02:38.650Z,40.16
2022-09-03T21:05:38.739Z,40.19
2022-09-03T21:08:11.968Z,39.90
2022-09-03T21:10:41.977Z,40.20
2022-09-03T21:13:19.295Z,40.17
2022-09-03T21:15:56.533Z,39.85
2022-09-03T21:18:27.043Z,39.98
2022-09-03T21:21:02.384Z,40.51
2022-09-03T21:23:33.799Z,40.25
2022-09-03T21:26:24.460Z,40.67
2022-09-03T21:29:07.882Z,40.56
2022-09-03T21:31:46.787Z,40.83
2022-09-03T21:34:45.697Z,41.11
2022-09-03T21:37:13.650Z,40.73
2022-09-03T21:39:52.715Z,40.93
2022-09-03T21:42:36.572Z,40.90
2022-09-03T21:45:30.687Z,40.96
2022-09-03T21:48:05.715Z,40.93
2022-09-03T21:50:55.624Z,41.00
2022-09-03T21:53:29.439Z,40.98
2022-09-03T21:55:59.559Z,41.20
2022-09-03T21:58:38.622Z,41.69
2022-09-03T22:01:12.526Z,41.40
2022-09-03T22:03:41.718Z,41.76
2022-09-03T22:06:14.649Z,41.12
2022-09-03T22:08:53.228Z,41.92
2022-09-03T22:11:37.452Z,41.65
2022-09-03T22:14:33.818Z,41.66
2022-09-03T22:17:11.353Z,41.39
2022-09-03T22:19:38.902Z,41.38
2022-09-03T22:22:28.038Z,41.93
2022-09-03T22:25:04.953Z,41.63
2022-09-03T22:28:00.708Z,42.67
2022-09-03T22:30:34.079Z,42.98
2022-09-03T22:33:46.537Z,42.63
2022-09-03T22:36:23.408Z,42.68
2022-09-03T22:39:11.808Z,42.64
2022-09-03T22:41:57.558Z,42.62
2022-09-03T22:44:39.990Z,42.76
2022-09-03T22:47:37.214Z,42.89
2022-09-03T22:50:18.270Z,43.27
2022-09-03T22:52:57.364Z,42.99
2022-09-03T22:55:26.059Z,43.27
2022-09-03T22:57:58.029Z,42.95
2022-09-03T23:00:26.027Z,43.34
2022-09-03T23:03:07.677Z,42.87
2022-09-03T23:05:56.596Z,43.15
2022-09-03T23:08:35.349Z,43.50
2022-09-03T23:11:10.286Z,43.67
2022-09-03T23:13:42.244Z,44.00
2022-09-03T23:16:15.448Z,43.73
2022-09-03T23:18:45.196Z,44.06
2022-09-03T23:21:53.763Z,44.01
2022-09-03T23:24:42.841Z,44.50
2022-09-03T23:27:15.254Z,44.26
2022-09-03T23:29:47.490Z,44.18
2022-09-03T23:32:15.055Z,44.79
2022-09-03T23:34:42.719Z,44.85
2022-09-03T23:37:34.472Z,45.03
2022-09-03T23:40:39.421Z,45.41
2022-09-03T23:43:45.641Z,44.99
2022-09-03T23:46:13.160Z,45.73
2022-09-03T23:49:04.419Z,45.32
2022-09-03T23:51:37.772Z,45.81
2022-09-03T23:54:13.402Z,45.67
2022-09-03T23:56:46.810Z,46.14
2022-09-03T23:59:40.694Z,45.84
